Bandar Seri Begawan, Brunei
Current Conditions -  °F | °C
As of 1:00 PM on Friday 31 Oct 2014 (Local Time) from WBSB Reporting Station
Rain Showers Rain Showers  
Wind Chill: 86°   Ceiling: 30000
Heat Index: 95°   Visibility: 6mi
Dew Point: 75°   Wind: 7mph
Humidity: 70%   Direction: 320°NW
Pressure: 29.77"   Gusts: NA
Location:  4.9431°N, 114.9425°E
Report Text: WBSB 310500Z 32006KT 9000 -SHRA SCT016 FEW017CB BKN300 30/24 Q1008 TEMPO 8000 -SHRA
Loading
Personal Weather Stations






























Interactive Weather Map
Tropical Storm Tracking
New forecast layout! Learn more

10-Day Weather Forecast

Advertisements
Track Severe Weather on mobile